Create Tblcommutelog Verified Points Advance Search
| # | Trip ID | Id Commuter | Trip Date | Trip Num | Current Lat | Current Lng | Delta Distance | Current Time | Activity | Activity Confidence | Current Speed | |
|---|---|---|---|---|---|---|---|---|---|---|---|---|
| 72361 | 260107_783590_16651319_1620 | 783590 | (not set) | (not set) | 39.03873 | -76.990005 | 0.5215 | 2026-01-07 16:22:31 | in_vehicle | 100 | 4.7162641823205 | |
| 72362 | 260107_786113_16654392_1552 | 786113 | (not set) | (not set) | 38.871293831401 | -77.296266054462 | 27.0352 | 2026-01-07 16:22:36 | in_vehicle | 100 | 13.907391347108 | |
| 72363 | 260107_781130_16648802_1615 | 781130 | (not set) | (not set) | 38.943428710066 | -76.94782631027 | 4.2589 | 2026-01-07 16:22:45 | unknown | 100 | 13.84927624344 | |
| 72364 | 260107_787830_16656355_1603 | 787830 | (not set) | (not set) | 39.141607272516 | -77.195563682055 | 13.6162 | 2026-01-07 16:22:51 | in_vehicle | 100 | 5.2035369746171 | |
| 72365 | 260107_779684_16420702_1602 | 779684 | (not set) | (not set) | 39.329469995823 | -77.015058391024 | 12.6651 | 2026-01-07 16:22:55 | in_vehicle | 100 | 3.4824358275144 | |
| 72366 | 260107_782619_16650325_1622 | 782619 | (not set) | (not set) | 38.900087024121 | -77.041877014634 | 0 | 2026-01-07 16:23:03 | on_foot | 100 | 0.32633865906104 | |
| 72367 | 260107_781130_16648802_1615 | 781130 | (not set) | (not set) | 38.948888565629 | -76.942948869489 | 4.7183 | 2026-01-07 16:23:09 | unknown | 100 | 13.567641510277 | |
| 72368 | 260107_787145_16655582_1603 | 787145 | (not set) | (not set) | 38.876750323571 | -77.057261565862 | 2.5678 | 2026-01-07 16:23:18 | in_vehicle | 100 | 8.887140468676 | |
| 72369 | 260107_788077_16656633_1555 | 788077 | (not set) | (not set) | 38.86854574489 | -77.311608324766 | 28.0396 | 2026-01-07 16:23:24 | unknown | 100 | 12.141586274107 | |
| 72370 | 260107_787700_16656208_1612 | 787700 | (not set) | (not set) | 39.296427824545 | -76.614786798178 | 0.8736 | 2026-01-07 16:23:32 | in_vehicle | 100 | 2.4542455318426 | |
| 72371 | 260107_783590_16651319_1620 | 783590 | (not set) | (not set) | 39.048743 | -76.99296 | 1.2321 | 2026-01-07 16:23:38 | in_vehicle | 100 | 7.6980160397686 | |
| 72372 | 260107_772498_16639773_1602 | 772498 | (not set) | (not set) | 38.925476430995 | -76.900056633635 | 2.618 | 2026-01-07 16:23:46 | unknown | 100 | 13.777749962002 | |
| 72373 | 260107_782619_16650325_1622 | 782619 | (not set) | (not set) | 38.900413038245 | -77.041888749299 | 0 | 2026-01-07 16:23:52 | on_foot | 100 | 0.33080905165092 | |
| 72374 | 260107_787783_0_1619 | 787783 | (not set) | (not set) | 38.891977512993 | -77.049872632186 | 0.6653 | 2026-01-07 16:23:59 | in_vehicle | 100 | -0.44703925898772 | |
| 72375 | 260107_739499_16604603_1600 | 739499 | (not set) | (not set) | 38.910760006081 | -77.044509459956 | 8.8546 | 2026-01-07 16:24:04 | in_vehicle | 100 | -0.44703925898772 | |
| 72376 | 260107_787830_16656355_1603 | 787830 | (not set) | (not set) | 39.146621790966 | -77.217582215902 | 14.8572 | 2026-01-07 16:24:10 | in_vehicle | 100 | 14.774647509544 | |
| 72377 | 260107_785264_16653381_1552 | 785264 | (not set) | (not set) | 38.937667866283 | -77.268704259791 | 15.0579 | 2026-01-07 16:24:18 | in_vehicle | 100 | 12.637799851583 | |
| 72378 | 260107_785261_6438355_1606 | 785261 | (not set) | (not set) | 38.867645758415 | -77.316251993134 | 15.0796 | 2026-01-07 16:24:25 | in_vehicle | 100 | 11.953829785332 | |
| 72379 | 260107_788423_16657042_1555 | 788423 | (not set) | (not set) | 38.864124746541 | -77.335777457964 | 29.2382 | 2026-01-07 16:24:35 | in_vehicle | 100 | 13.196598925318 | |
| 72380 | 260107_787830_16656355_1603 | 787830 | (not set) | (not set) | 39.149179224916 | -77.225287224999 | 15.3073 | 2026-01-07 16:24:39 | in_vehicle | 100 | 8.6055057355137 |